Time;durP1;ratioP1;P1;durP2;ratioP2;P2;SDS_P1;SDS_P2;PMS_P1;PMS_P2;Temp;Humidity;BMP_temperature;BMP_pressure;BME280_temperature;BME280_humidity;BME280_pressure;Samples;Min_cycle;Max_cycle;Signal;HPM_P1;HPM_P2
2023/10/16 00:01:27;;;;;;;;;;;;;;;21.74;45.22;102291.16;5034798;28;19956;-49
2023/10/16 00:03:52;;;;;;;;;;;;;;;21.70;45.40;102296.88;5033537;28;19913;-49
2023/10/16 00:06:18;;;;;;;;;;;;;;;21.69;45.18;102295.19;5066110;28;19913;-49
2023/10/16 00:08:49;;;;;;;;;;;;;;;21.66;45.33;102300.94;5038656;28;20007;-48
2023/10/16 00:11:23;;;;;;;;;;;;;;;21.62;45.54;102296.81;5040202;28;19921;-46
2023/10/16 00:13:49;;;;;;;;;;;;;;;21.60;45.63;102292.56;5036958;28;19916;-50
2023/10/16 00:16:16;;;;;;;;;;;;;;;21.58;45.44;102300.84;5039787;28;19969;-48
2023/10/16 00:18:41;;;;;;;;;;;;;;;21.55;45.45;102301.13;5038728;28;19913;-49
2023/10/16 00:21:07;;;;;;;;;;;;;;;21.53;45.53;102307.69;5031808;28;19914;-50
2023/10/16 00:23:37;;;;;;;;;;;;;;;21.50;45.89;102298.03;5038847;28;19953;-49
2023/10/16 00:26:03;;;;;;;;;;;;;;;21.48;45.79;102302.72;5040937;28;19909;-46
2023/10/16 00:28:30;;;;;;;;;;;;;;;21.46;45.81;102307.47;5037388;28;19916;-50
2023/10/16 00:30:55;;;;;;;;;;;;;;;21.43;45.68;102294.22;5040315;28;19916;-48
2023/10/16 00:33:20;;;;;;;;;;;;;;;21.42;45.95;102289.81;5034451;28;19913;-50
2023/10/16 00:35:48;;;;;;;;;;;;;;;21.40;45.61;102289.97;5035125;28;19913;-48
2023/10/16 00:38:19;;;;;;;;;;;;;;;21.38;45.81;102285.72;5040860;28;19909;-49
2023/10/16 00:41:09;;;;;;;;;;;;;;;21.37;45.74;102282.16;5035366;28;19964;-47
2023/10/16 00:43:32;;;;;;;;;;;;;;;21.35;45.80;102284.16;5040091;28;19951;-47
2023/10/16 00:46:05;;;;;;;;;;;;;;;21.34;45.74;102285.16;5042925;28;19905;-51
2023/10/16 00:48:30;;;;;;;;;;;;;;;21.30;45.88;102281.03;5045685;28;19944;-49
2023/10/16 00:50:56;;;;;;;;;;;;;;;21.29;45.90;102289.31;5044833;28;19913;-47
2023/10/16 00:53:22;;;;;;;;;;;;;;;21.28;45.92;102282.16;5045726;28;19913;-49
2023/10/16 00:55:48;;;;;;;;;;;;;;;21.25;46.04;102285.19;5040967;28;19913;-50
2023/10/16 00:58:14;;;;;;;;;;;;;;;21.24;46.13;102287.06;5045118;28;19955;-49
2023/10/16 01:00:45;;;;;;;;;;;;;;;21.22;46.25;102287.19;5038673;28;20052;-49
2023/10/16 01:03:11;;;;;;;;;;;;;;;21.20;46.07;102289.19;5042721;28;19913;-50
2023/10/16 01:05:41;;;;;;;;;;;;;;;21.18;46.35;102302.00;5040170;28;19910;-48
2023/10/16 01:08:08;;;;;;;;;;;;;;;21.16;46.18;102290.50;5040157;28;19944;-49
2023/10/16 01:10:34;;;;;;;;;;;;;;;21.13;46.11;102279.97;5043044;28;19913;-46
2023/10/16 01:13:01;;;;;;;;;;;;;;;21.12;46.20;102294.50;5039435;28;19925;-51
2023/10/16 01:15:27;;;;;;;;;;;;;;;21.10;46.17;102287.53;5040914;28;19956;-51
2023/10/16 01:17:52;;;;;;;;;;;;;;;21.09;46.24;102283.97;5042001;28;19917;-48
2023/10/16 01:20:20;;;;;;;;;;;;;;;21.08;46.18;102287.69;5036946;28;19955;-51
2023/10/16 01:22:45;;;;;;;;;;;;;;;21.05;46.28;102273.63;5039327;28;19947;-47
2023/10/16 01:25:11;;;;;;;;;;;;;;;21.03;46.54;102270.22;5041405;28;19914;-51
2023/10/16 01:27:38;;;;;;;;;;;;;;;21.02;46.31;102282.88;5041600;28;19921;-48
2023/10/16 01:30:07;;;;;;;;;;;;;;;20.99;46.25;102268.81;5042656;28;19917;-47
2023/10/16 01:32:32;;;;;;;;;;;;;;;20.97;46.65;102267.09;5038310;28;19921;-48
2023/10/16 01:34:59;;;;;;;;;;;;;;;20.96;46.36;102269.97;5038239;28;19909;-51
2023/10/16 01:37:25;;;;;;;;;;;;;;;20.94;46.69;102266.53;5038667;28;19913;-47
2023/10/16 01:39:53;;;;;;;;;;;;;;;20.93;46.52;102265.69;5036150;28;19909;-50
2023/10/16 01:42:19;;;;;;;;;;;;;;;20.90;46.67;102257.91;5041676;28;19943;-50
2023/10/16 01:44:44;;;;;;;;;;;;;;;20.90;46.77;102273.28;5038158;28;19909;-48
2023/10/16 01:47:15;;;;;;;;;;;;;;;20.89;46.70;102276.94;5035283;28;19980;-48
2023/10/16 01:49:40;;;;;;;;;;;;;;;20.88;46.65;102284.22;5039564;28;20279;-52
2023/10/16 01:52:10;;;;;;;;;;;;;;;20.87;46.59;102276.25;5038504;28;20493;-49
2023/10/16 01:54:37;;;;;;;;;;;;;;;20.86;46.76;102274.56;5038681;28;20383;-46
2023/10/16 01:57:03;;;;;;;;;;;;;;;20.84;46.71;102263.03;5039620;28;19970;-48
2023/10/16 01:59:28;;;;;;;;;;;;;;;20.83;46.78;102269.44;5037017;28;19914;-51
2023/10/16 02:01:53;;;;;;;;;;;;;;;20.82;46.79;102263.19;5032405;28;19920;-51
2023/10/16 02:04:19;;;;;;;;;;;;;;;20.81;46.86;102266.88;5040140;28;20007;-48
2023/10/16 02:06:48;;;;;;;;;;;;;;;20.80;46.94;102261.63;5036448;28;19909;-48
2023/10/16 02:09:15;;;;;;;;;;;;;;;20.78;46.94;102263.66;5043152;28;19931;-49
2023/10/16 02:11:41;;;;;;;;;;;;;;;20.78;46.61;102263.66;5037564;28;19931;-48
2023/10/16 02:14:06;;;;;;;;;;;;;;;20.77;46.90;102261.91;5032938;28;19913;-48
2023/10/16 02:16:31;;;;;;;;;;;;;;;20.75;46.78;102256.66;5037109;28;19919;-48
2023/10/16 02:18:57;;;;;;;;;;;;;;;20.74;47.01;102252.28;5041655;28;19916;-50
2023/10/16 02:21:23;;;;;;;;;;;;;;;20.74;47.03;102246.03;5041550;28;20039;-48
2023/10/16 02:23:48;;;;;;;;;;;;;;;20.72;46.91;102248.84;5033558;28;19913;-50
2023/10/16 02:26:18;;;;;;;;;;;;;;;20.71;46.81;102247.16;5036153;28;19931;-49
2023/10/16 02:28:46;;;;;;;;;;;;;;;20.68;46.74;102245.59;5042156;28;19913;-49
2023/10/16 02:31:15;;;;;;;;;;;;;;;20.68;47.09;102256.41;5036508;28;19932;-49
2023/10/16 02:33:45;;;;;;;;;;;;;;;20.66;47.06;102255.72;5040839;28;19917;-48
2023/10/16 02:36:11;;;;;;;;;;;;;;;20.65;47.22;102251.31;5042572;28;19917;-48
2023/10/16 02:38:36;;;;;;;;;;;;;;;20.65;46.82;102258.56;5033988;28;20357;-48
2023/10/16 02:41:03;;;;;;;;;;;;;;;20.63;47.20;102258.69;5041454;28;19985;-49
2023/10/16 02:43:29;;;;;;;;;;;;;;;20.62;46.92;102256.16;5040288;28;19909;-51
2023/10/16 02:45:55;;;;;;;;;;;;;;;20.61;46.97;102251.75;5036816;28;19910;-47
2023/10/16 02:48:21;;;;;;;;;;;;;;;20.59;47.33;102251.03;5042749;28;20082;-47
2023/10/16 02:50:59;;;;;;;;;;;;;;;20.58;47.05;102252.88;5038840;28;19913;-50
2023/10/16 02:53:25;;;;;;;;;;;;;;;20.57;47.38;102263.84;5069272;28;20273;-49
2023/10/16 02:56:05;;;;;;;;;;;;;;;20.56;47.04;102263.00;5038702;28;19909;-49
2023/10/16 02:58:30;;;;;;;;;;;;;;;20.55;47.04;102257.72;5038571;28;19935;-51
2023/10/16 03:00:55;;;;;;;;;;;;;;;20.52;47.50;102258.88;5040944;28;19917;-51
2023/10/16 03:03:21;;;;;;;;;;;;;;;20.51;47.33;102254.47;5039666;28;19916;-52
2023/10/16 03:05:49;;;;;;;;;;;;;;;20.50;47.46;102257.31;5037628;28;19913;-53
2023/10/16 03:08:18;;;;;;;;;;;;;;;20.49;47.13;102261.03;5040656;28;19924;-51
2023/10/16 03:10:45;;;;;;;;;;;;;;;20.47;47.45;102259.31;5038791;28;19932;-51
2023/10/16 03:13:11;;;;;;;;;;;;;;;20.45;47.52;102255.88;5038876;28;19920;-48
2023/10/16 03:15:42;;;;;;;;;;;;;;;20.44;47.22;102254.19;5040504;28;19909;-53
2023/10/16 03:18:16;;;;;;;;;;;;;;;20.43;47.48;102251.59;5036669;28;19909;-53
2023/10/16 03:20:41;;;;;;;;;;;;;;;20.42;47.30;102249.91;5040021;28;19921;-51
2023/10/16 03:23:07;;;;;;;;;;;;;;;20.41;47.21;102250.91;5039027;28;19947;-51
2023/10/16 03:28:07;;;;;;;;;;;;;;;20.39;47.21;102252.88;5048577;28;19947;-48
2023/10/16 03:30:32;;;;;;;;;;;;;;;20.38;47.26;102249.34;5034468;28;19913;-51
2023/10/16 03:33:03;;;;;;;;;;;;;;;20.37;47.50;102241.41;5037323;28;20388;-51
2023/10/16 03:35:31;;;;;;;;;;;;;;;20.35;47.37;102241.56;5038035;28;19989;-50
2023/10/16 03:37:57;;;;;;;;;;;;;;;20.34;47.46;102241.69;5035196;28;19909;-48
2023/10/16 03:40:24;;;;;;;;;;;;;;;20.33;47.51;102245.38;5040469;28;20036;-49
2023/10/16 03:42:55;;;;;;;;;;;;;;;20.31;47.48;102240.13;5038366;28;19909;-49
2023/10/16 03:45:21;;;;;;;;;;;;;;;20.30;47.66;102242.97;5035627;28;19952;-48
2023/10/16 03:48:05;;;;;;;;;;;;;;;20.29;47.66;102249.38;5038783;28;19909;-48
2023/10/16 03:50:38;;;;;;;;;;;;;;;20.28;47.46;102250.38;5035940;28;19940;-49
2023/10/16 03:53:03;;;;;;;;;;;;;;;20.26;47.51;102239.69;5038045;28;19917;-50
2023/10/16 03:55:31;;;;;;;;;;;;;;;20.26;47.67;102244.25;5038283;28;19917;-50
2023/10/16 03:57:56;;;;;;;;;;;;;;;20.24;47.78;102252.50;5036102;28;19908;-48
2023/10/16 04:00:43;;;;;;;;;;;;;;;20.23;47.39;102246.25;5039869;28;19976;-53
2023/10/16 04:03:09;;;;;;;;;;;;;;;20.21;47.85;102245.53;5039262;28;19909;-46
2023/10/16 04:05:45;;;;;;;;;;;;;;;20.21;47.75;102242.84;5036060;28;19920;-50
2023/10/16 04:08:10;;;;;;;;;;;;;;;20.19;47.51;102247.53;5039752;28;20042;-47
2023/10/16 04:10:36;;;;;;;;;;;;;;;20.19;47.91;102241.28;5035594;28;19912;-49
2023/10/16 04:13:02;;;;;;;;;;;;;;;20.18;47.94;102240.44;5039614;28;20004;-47
2023/10/16 04:18:46;;;;;;;;;;;;;;;20.17;47.89;102237.88;5034119;28;19921;-51
2023/10/16 04:23:52;;;;;;;;;;;;;;;20.14;47.69;102238.19;5048480;28;19920;-48
2023/10/16 04:29:45;;;;;;;;;;;;;;;20.12;47.66;102237.47;5034824;28;19988;-46
2023/10/16 04:31:44;;;;;;;;;;;;;;;20.10;48.09;102232.22;5042176;28;19909;-50
2023/10/16 04:42:50;;;;;;;;;;;;;;;20.11;48.30;102227.66;5039814;28;19920;-50
2023/10/16 04:47:56;;;;;;;;;;;;;;;20.09;48.29;102227.81;5040167;28;19909;-51
2023/10/16 04:50:37;;;;;;;;;;;;;;;20.09;48.32;102224.25;5038978;28;19944;-52
2023/10/16 05:01:22;;;;;;;;;;;;;;;20.09;48.60;102216.13;5038871;28;20004;-50
2023/10/16 05:06:05;;;;;;;;;;;;;;;20.07;48.68;102197.41;5046078;28;19931;-46
2023/10/16 05:08:35;;;;;;;;;;;;;;;20.07;48.70;102194.69;5038407;28;19908;-48
2023/10/16 05:16:35;;;;;;;;;;;;;;;20.08;48.95;102195.53;5039504;28;19920;-50
2023/10/16 05:19:03;;;;;;;;;;;;;;;20.08;48.71;102192.84;5043197;28;19916;-48
2023/10/16 06:16:16;;;;;;;;;;;;;;;20.15;49.12;102215.59;5042992;28;19920;-49
2023/10/16 06:18:41;;;;;;;;;;;;;;;20.14;49.18;102209.34;5045831;28;19935;-50
2023/10/16 06:21:06;;;;;;;;;;;;;;;20.16;49.06;102225.38;5036013;28;19952;-50
2023/10/16 06:23:33;;;;;;;;;;;;;;;20.16;48.88;102219.97;5037449;28;19931;-50
2023/10/16 06:26:02;;;;;;;;;;;;;;;20.16;49.12;102217.28;5037947;28;19940;-48
2023/10/16 06:28:27;;;;;;;;;;;;;;;20.18;48.81;102215.28;5038618;28;19997;-47
2023/10/16 06:30:52;;;;;;;;;;;;;;;20.18;48.85;102208.03;5032348;28;19909;-48
2023/10/16 06:33:18;;;;;;;;;;;;;;;20.19;48.95;102219.69;5036738;28;20411;-49
2023/10/16 06:35:44;;;;;;;;;;;;;;;20.21;49.06;102217.69;5037529;28;20269;-48
2023/10/16 06:38:14;;;;;;;;;;;;;;;20.21;49.06;102220.38;5042775;28;20128;-49
2023/10/16 06:40:40;;;;;;;;;;;;;;;20.23;48.84;102218.41;5035144;28;19913;-51
2023/10/16 06:43:13;;;;;;;;;;;;;;;20.25;48.81;102221.81;5043704;28;19935;-50
2023/10/16 06:45:42;;;;;;;;;;;;;;;20.26;48.65;102220.78;5037423;28;20003;-52
2023/10/16 06:48:08;;;;;;;;;;;;;;;20.27;48.80;102213.56;5041567;28;19905;-48
2023/10/16 06:50:35;;;;;;;;;;;;;;;19.83;48.39;102143.88;5042001;28;19909;-49
2023/10/16 06:53:00;;;;;;;;;;;;;;;20.30;48.86;102219.50;5032758;28;19909;-50
2023/10/16 06:55:25;;;;;;;;;;;;;;;20.32;48.67;102222.09;5040184;28;19963;-49
2023/10/16 06:57:51;;;;;;;;;;;;;;;20.33;48.37;102230.03;5042998;28;19925;-51
2023/10/16 07:00:50;;;;;;;;;;;;;;;20.36;48.58;102223.50;5035317;28;19920;-48
2023/10/16 07:03:12;;;;;;;;;;;;;;;20.38;48.56;102233.13;5041246;28;19936;-53
2023/10/16 07:05:43;;;;;;;;;;;;;;;20.40;48.27;102233.00;5030984;28;20041;-54
2023/10/16 07:08:09;;;;;;;;;;;;;;;20.40;48.37;102225.75;5038274;28;19909;-50
2023/10/16 07:10:36;;;;;;;;;;;;;;;20.43;48.23;102225.47;5040840;28;19909;-52
2023/10/16 07:13:05;;;;;;;;;;;;;;;20.45;48.20;102222.59;5036622;28;19944;-51
2023/10/16 07:15:31;;;;;;;;;;;;;;;20.46;48.00;102222.44;5039198;28;19975;-48
2023/10/16 07:17:56;;;;;;;;;;;;;;;20.49;48.08;102228.59;5041714;28;19963;-50
2023/10/16 07:20:30;;;;;;;;;;;;;;;20.51;48.26;102222.03;5035622;28;19996;-48
2023/10/16 07:22:57;;;;;;;;;;;;;;;20.52;48.09;102229.16;5041438;28;20031;-50
2023/10/16 07:25:25;;;;;;;;;;;;;;;20.54;47.86;102223.59;5037673;28;19921;-49
2023/10/16 07:27:57;;;;;;;;;;;;;;;20.56;48.08;102221.59;5038911;28;19909;-49
2023/10/16 07:30:23;;;;;;;;;;;;;;;20.58;47.87;102225.03;5041477;28;19913;-51
2023/10/16 07:32:51;;;;;;;;;;;;;;;20.59;48.11;102230.25;5037859;28;19909;-51
2023/10/16 07:35:21;;;;;;;;;;;;;;;20.61;47.99;102228.28;5039383;28;20198;-50
2023/10/16 07:37:49;;;;;;;;;;;;;;;20.63;47.99;102242.47;5038674;28;19910;-52
2023/10/16 07:40:15;;;;;;;;;;;;;;;20.64;47.65;102237.91;5039719;28;19916;-47
2023/10/16 07:42:41;;;;;;;;;;;;;;;20.66;47.96;102242.19;5042802;28;20425;-52
2023/10/16 07:45:06;;;;;;;;;;;;;;;20.69;47.75;102246.47;5035988;28;19948;-48
2023/10/16 07:47:31;;;;;;;;;;;;;;;20.71;47.67;102252.56;5037536;28;19940;-49
2023/10/16 07:49:57;;;;;;;;;;;;;;;20.73;47.58;102250.56;5040593;28;19919;-51
2023/10/16 07:52:22;;;;;;;;;;;;;;;20.75;47.94;102245.00;5034740;28;19913;-49
2023/10/16 07:54:47;;;;;;;;;;;;;;;20.77;47.77;102249.25;5039777;28;19909;-50
2023/10/16 07:57:17;;;;;;;;;;;;;;;20.79;47.60;102247.25;5044960;28;20451;-51
2023/10/16 07:59:43;;;;;;;;;;;;;;;20.80;47.52;102254.38;5040496;28;20388;-50
2023/10/16 08:02:08;;;;;;;;;;;;;;;20.83;47.75;102258.63;5045509;28;19917;-52
2023/10/16 08:04:36;;;;;;;;;;;;;;;20.85;47.65;102251.22;5039479;28;19913;-51
2023/10/16 08:07:04;;;;;;;;;;;;;;;20.87;47.83;102260.88;5041417;28;19912;-50
2023/10/16 08:09:48;;;;;;;;;;;;;;;20.89;47.64;102258.88;5043836;28;19944;-49
2023/10/16 08:12:20;;;;;;;;;;;;;;;20.92;47.42;102249.63;5041327;28;20390;-51
2023/10/16 08:14:54;;;;;;;;;;;;;;;20.94;47.41;102239.50;5044818;28;19909;-52
2023/10/16 08:17:23;;;;;;;;;;;;;;;20.96;47.28;102249.19;5040783;28;19909;-50
2023/10/16 08:19:49;;;;;;;;;;;;;;;20.97;47.56;102244.63;5033602;28;19932;-49
2023/10/16 08:22:14;;;;;;;;;;;;;;;21.00;47.45;102243.47;5045457;28;19924;-50
2023/10/16 08:24:57;;;;;;;;;;;;;;;21.03;47.19;102243.19;5038833;28;19913;-47
2023/10/16 08:27:40;;;;;;;;;;;;;;;21.07;47.28;102245.44;5035882;28;19909;-50
2023/10/16 08:30:18;;;;;;;;;;;;;;;21.09;47.45;102239.88;5041969;28;20269;-49
2023/10/16 08:35:10;;;;;;;;;;;;;;;21.14;47.16;102235.69;5041309;28;19913;-48
2023/10/16 08:37:35;;;;;;;;;;;;;;;21.18;47.33;102249.78;5040025;28;20008;-51
2023/10/16 08:40:00;;;;;;;;;;;;;;;21.19;47.34;102246.91;5044229;28;19913;-48
2023/10/16 08:42:25;;;;;;;;;;;;;;;21.22;47.35;102248.47;5036215;28;19918;-47
2023/10/16 08:44:51;;;;;;;;;;;;;;;21.25;47.20;102252.75;5038087;28;19924;-46
2023/10/16 08:47:24;;;;;;;;;;;;;;;21.27;47.16;102253.41;5029294;28;20315;-51
2023/10/16 08:49:52;;;;;;;;;;;;;;;21.29;46.97;102257.69;5037905;28;19917;-50
2023/10/16 08:52:21;;;;;;;;;;;;;;;21.31;47.27;102261.06;5036192;28;19909;-49
2023/10/16 08:57:16;;;;;;;;;;;;;;;21.36;47.04;102264.22;5039858;28;19939;-51
2023/10/16 08:59:42;;;;;;;;;;;;;;;21.39;47.05;102265.78;5038975;28;19920;-48
2023/10/16 09:02:07;;;;;;;;;;;;;;;21.41;47.04;102259.22;5041379;28;19913;-48
2023/10/16 09:04:33;;;;;;;;;;;;;;;21.44;47.07;102249.91;5038777;28;19919;-48
2023/10/16 09:06:59;;;;;;;;;;;;;;;21.46;46.77;102247.94;5043175;28;19913;-50
2023/10/16 09:09:25;;;;;;;;;;;;;;;21.49;46.67;102255.72;5029814;28;19959;-48
2023/10/16 09:11:50;;;;;;;;;;;;;;;21.52;46.80;102246.47;5032881;28;19950;-51
2023/10/16 09:14:20;;;;;;;;;;;;;;;21.54;46.64;102248.03;5042638;28;20003;-49
2023/10/16 09:16:51;;;;;;;;;;;;;;;21.55;46.84;102254.28;5032069;28;19906;-51
2023/10/16 09:19:18;;;;;;;;;;;;;;;21.56;47.01;102255.97;5041566;28;19919;-52
2023/10/16 09:21:43;;;;;;;;;;;;;;;21.57;46.78;102253.09;5041266;28;19913;-47
2023/10/16 09:24:09;;;;;;;;;;;;;;;21.62;46.66;102252.63;5040951;28;19919;-50
2023/10/16 09:26:37;;;;;;;;;;;;;;;21.65;46.53;102260.47;5039997;28;19924;-52
2023/10/16 09:29:15;;;;;;;;;;;;;;;21.67;46.36;102262.03;5039701;28;19913;-48
2023/10/16 09:31:46;;;;;;;;;;;;;;;21.70;46.49;102268.97;5040777;28;19913;-48
2023/10/16 09:34:17;;;;;;;;;;;;;;;21.70;46.60;102274.38;5042023;28;19961;-50
2023/10/16 09:36:46;;;;;;;;;;;;;;;21.71;46.42;102276.09;5036328;28;19924;-50
2023/10/16 09:39:18;;;;;;;;;;;;;;;21.75;46.35;102266.66;5040003;28;20202;-51
2023/10/16 09:41:46;;;;;;;;;;;;;;;21.79;46.33;102278.00;5037682;28;19932;-52
2023/10/16 09:44:23;;;;;;;;;;;;;;;21.83;46.49;102274.00;5039638;28;20133;-50
2023/10/16 09:46:52;;;;;;;;;;;;;;;21.86;46.02;102274.53;5040265;28;19937;-50
2023/10/16 09:49:24;;;;;;;;;;;;;;;21.91;46.24;102268.66;5040077;28;20268;-52
2023/10/16 09:51:59;;;;;;;;;;;;;;;21.94;46.04;102269.19;5039445;28;19940;-49
2023/10/16 09:54:27;;;;;;;;;;;;;;;21.99;46.03;102262.47;5041475;28;19948;-48
2023/10/16 09:56:58;;;;;;;;;;;;;;;22.03;45.96;102264.69;5037200;28;20001;-50
2023/10/16 09:59:26;;;;;;;;;;;;;;;22.08;45.87;102262.38;5044458;28;19983;-50
2023/10/16 10:01:55;;;;;;;;;;;;;;;22.13;45.78;102256.50;5036900;28;19921;-47
2023/10/16 10:04:24;;;;;;;;;;;;;;;21.90;45.32;102219.06;5035221;28;19909;-51
2023/10/16 10:06:50;;;;;;;;;;;;;;;22.18;45.33;102262.31;5058223;28;19913;-52
2023/10/16 10:12:14;;;;;;;;;;;;;;;22.20;45.24;102254.88;5038038;28;19981;-50
2023/10/16 10:14:48;;;;;;;;;;;;;;;22.24;45.29;102252.72;5036552;28;20031;-52
2023/10/16 10:17:19;;;;;;;;;;;;;;;22.25;45.32;102259.81;5042396;28;20007;-49
2023/10/16 10:19:46;;;;;;;;;;;;;;;22.26;45.30;102262.38;5044583;28;20481;-47
2023/10/16 10:22:17;;;;;;;;;;;;;;;22.29;45.17;102258.50;5039449;28;19990;-48
2023/10/16 10:24:45;;;;;;;;;;;;;;;22.29;45.38;102255.78;5040114;28;19924;-48
2023/10/16 10:27:11;;;;;;;;;;;;;;;22.29;45.42;102253.94;5038155;28;19909;-48
2023/10/16 10:29:37;;;;;;;;;;;;;;;22.27;45.31;102253.25;5035400;28;19909;-47
2023/10/16 10:32:05;;;;;;;;;;;;;;;22.26;45.42;102258.81;5038533;28;19913;-48
2023/10/16 10:34:30;;;;;;;;;;;;;;;22.25;45.62;102262.53;5034613;28;19940;-49
2023/10/16 10:36:58;;;;;;;;;;;;;;;22.24;45.51;102263.53;5035071;28;19909;-48
2023/10/16 10:39:25;;;;;;;;;;;;;;;22.21;45.44;102260.13;5038490;28;19921;-51
2023/10/16 10:41:53;;;;;;;;;;;;;;;22.20;45.59;102260.28;5035573;28;19920;-48
2023/10/16 10:44:19;;;;;;;;;;;;;;;22.19;45.47;102255.88;5036920;28;19937;-51
2023/10/16 10:46:49;;;;;;;;;;;;;;;22.19;45.60;102255.88;5036601;28;20376;-52
2023/10/16 10:49:15;;;;;;;;;;;;;;;22.19;45.72;102256.75;5036866;28;19948;-50
2023/10/16 10:51:44;;;;;;;;;;;;;;;22.20;45.74;102249.47;5032939;28;19924;-51
2023/10/16 10:54:12;;;;;;;;;;;;;;;22.21;45.78;102249.28;5033031;28;20445;-51
2023/10/16 10:56:41;;;;;;;;;;;;;;;22.21;45.79;102243.03;5031726;28;19920;-51
2023/10/16 10:59:10;;;;;;;;;;;;;;;22.23;45.88;102242.88;5038345;28;19936;-51
2023/10/16 11:01:44;;;;;;;;;;;;;;;22.23;46.01;102240.19;5032741;28;19916;-51
2023/10/16 11:04:15;;;;;;;;;;;;;;;22.21;45.73;102243.88;5032309;28;19913;-51
2023/10/16 11:06:49;;;;;;;;;;;;;;;22.20;45.87;102230.50;5036542;28;19921;-52
2023/10/16 11:09:18;;;;;;;;;;;;;;;22.19;45.90;102234.22;5037877;28;19974;-50
2023/10/16 11:11:44;;;;;;;;;;;;;;;22.18;45.88;102227.97;5037350;28;19917;-50
2023/10/16 11:14:12;;;;;;;;;;;;;;;22.18;45.94;102225.25;5034998;28;19916;-53
2023/10/16 11:16:44;;;;;;;;;;;;;;;22.18;45.81;102219.81;5037567;28;19909;-51
2023/10/16 11:19:10;;;;;;;;;;;;;;;22.18;45.98;102216.28;5041365;28;19916;-51
2023/10/16 11:21:45;;;;;;;;;;;;;;;22.18;45.96;102211.69;5037940;28;19917;-51
2023/10/16 11:24:11;;;;;;;;;;;;;;;22.19;45.87;102212.53;5041270;28;19913;-51
2023/10/16 11:26:38;;;;;;;;;;;;;;;22.19;45.99;102212.53;5035685;28;19948;-48
2023/10/16 11:29:04;;;;;;;;;;;;;;;22.18;45.85;102203.56;5070063;28;19916;-51
2023/10/16 11:31:29;;;;;;;;;;;;;;;22.20;46.18;102212.38;5039826;28;19985;-50
2023/10/16 11:34:02;;;;;;;;;;;;;;;22.21;45.89;102224.06;5035292;28;19913;-50
2023/10/16 11:36:28;;;;;;;;;;;;;;;22.21;46.32;102213.22;5039406;28;19912;-50
2023/10/16 11:38:57;;;;;;;;;;;;;;;22.21;45.97;102211.34;5040731;28;19932;-52
2023/10/16 11:41:24;;;;;;;;;;;;;;;22.21;45.98;102207.81;5036936;28;19992;-51
2023/10/16 11:43:53;;;;;;;;;;;;;;;22.22;46.01;102206.81;5036742;28;19908;-49
2023/10/16 11:46:44;;;;;;;;;;;;;;;22.23;46.39;102204.97;5037804;28;19916;-48
2023/10/16 11:51:45;;;;;;;;;;;;;;;22.25;46.21;102209.19;5041566;28;19916;-50
2023/10/16 11:54:10;;;;;;;;;;;;;;;22.26;46.11;102201.91;5037344;28;19913;-52
2023/10/16 11:56:36;;;;;;;;;;;;;;;22.27;46.33;102201.78;5035877;28;19976;-50
2023/10/16 11:59:03;;;;;;;;;;;;;;;22.27;46.34;102195.50;5038719;28;19917;-49
2023/10/16 12:01:28;;;;;;;;;;;;;;;22.28;46.16;102195.34;5032108;28;19928;-49
2023/10/16 12:03:55;;;;;;;;;;;;;;;22.30;46.36;102195.16;5036794;28;19913;-50
2023/10/16 12:06:20;;;;;;;;;;;;;;;22.30;46.34;102187.03;5034762;28;19909;-48
2023/10/16 12:08:45;;;;;;;;;;;;;;;22.31;46.25;102186.88;5038092;28;19916;-52
2023/10/16 12:11:14;;;;;;;;;;;;;;;22.32;46.36;102179.63;5039725;28;19917;-51
2023/10/16 12:13:40;;;;;;;;;;;;;;;22.32;46.10;102172.31;5034488;28;19909;-52
2023/10/16 12:16:05;;;;;;;;;;;;;;;22.32;46.40;102175.03;5037606;28;19909;-51
2023/10/16 12:18:31;;;;;;;;;;;;;;;22.32;46.43;102180.44;5036239;28;19959;-53
2023/10/16 12:21:04;;;;;;;;;;;;;;;22.32;46.33;102177.75;5037593;28;19924;-49
2023/10/16 12:23:32;;;;;;;;;;;;;;;22.33;46.17;102174.03;5043466;28;19913;-53
2023/10/16 12:25:59;;;;;;;;;;;;;;;22.32;46.40;102175.03;5036089;28;20036;-48
2023/10/16 12:28:25;;;;;;;;;;;;;;;22.33;46.10;102175.88;5034463;28;19931;-51
2023/10/16 12:30:51;;;;;;;;;;;;;;;22.33;46.55;102167.75;5035314;28;19980;-50
2023/10/16 12:33:16;;;;;;;;;;;;;;;22.32;46.46;102171.47;5038130;28;20007;-50
2023/10/16 12:35:41;;;;;;;;;;;;;;;22.30;46.59;102171.66;5034519;28;19917;-48
2023/10/16 12:38:07;;;;;;;;;;;;;;;22.31;46.25;102167.09;5035630;28;19909;-51
2023/10/16 12:40:37;;;;;;;;;;;;;;;22.29;46.46;102161.81;5032622;28;19921;-51
2023/10/16 12:43:02;;;;;;;;;;;;;;;22.28;46.37;102161.97;5036593;28;19985;-52
2023/10/16 12:45:27;;;;;;;;;;;;;;;22.27;46.43;102160.28;5036732;28;19912;-49
2023/10/16 12:47:53;;;;;;;;;;;;;;;22.25;46.65;102155.00;5034328;28;19917;-52
2023/10/16 12:50:23;;;;;;;;;;;;;;;22.24;46.50;102150.59;5023558;28;19909;-48
2023/10/16 12:52:49;;;;;;;;;;;;;;;22.23;46.72;102157.03;5036031;28;19915;-49
2023/10/16 12:55:16;;;;;;;;;;;;;;;22.23;46.63;102154.34;5037166;28;19952;-52
2023/10/16 12:57:43;;;;;;;;;;;;;;;22.22;46.69;102147.22;5040191;28;20338;-52
2023/10/16 13:00:15;;;;;;;;;;;;;;;22.20;46.67;102150.06;5036295;28;19920;-48
2023/10/16 13:02:45;;;;;;;;;;;;;;;21.93;46.63;102107.72;5036180;28;20007;-51
2023/10/16 13:05:13;;;;;;;;;;;;;;;22.19;46.84;102145.66;5037616;28;20004;-51
2023/10/16 13:07:40;;;;;;;;;;;;;;;22.18;46.83;102151.25;5039312;28;19909;-52
2023/10/16 13:10:08;;;;;;;;;;;;;;;22.17;46.69;102154.94;5036161;28;19952;-49
2023/10/16 13:12:33;;;;;;;;;;;;;;;22.16;46.75;102154.09;5035686;28;19922;-49
2023/10/16 13:15:00;;;;;;;;;;;;;;;22.14;46.84;102156.16;5033554;28;20388;-49
2023/10/16 13:17:25;;;;;;;;;;;;;;;22.15;46.89;102157.84;5040164;28;19909;-50
2023/10/16 13:19:50;;;;;;;;;;;;;;;22.15;46.73;102154.28;5040320;28;19923;-49
2023/10/16 13:22:17;;;;;;;;;;;;;;;22.15;46.95;102157.00;5043186;28;19992;-50
2023/10/16 13:24:42;;;;;;;;;;;;;;;22.15;46.74;102155.13;5039340;28;19952;-47
2023/10/16 13:27:07;;;;;;;;;;;;;;;22.17;46.61;102152.25;5040990;28;19909;-46
2023/10/16 13:29:33;;;;;;;;;;;;;;;22.16;46.92;102155.97;5043576;28;19948;-47
2023/10/16 13:32:00;;;;;;;;;;;;;;;22.14;46.80;102158.00;5041252;28;19924;-49
2023/10/16 13:34:25;;;;;;;;;;;;;;;22.13;46.71;102153.56;5041843;28;20311;-50
2023/10/16 13:37:00;;;;;;;;;;;;;;;22.12;46.65;102150.03;5037427;28;20467;-50
2023/10/16 13:39:25;;;;;;;;;;;;;;;22.10;46.89;102151.16;5040046;28;19916;-49
2023/10/16 13:41:50;;;;;;;;;;;;;;;22.09;47.11;102153.03;5041472;28;19913;-47
2023/10/16 13:44:19;;;;;;;;;;;;;;;22.08;46.85;102153.19;5042990;28;19913;-49
2023/10/16 13:46:45;;;;;;;;;;;;;;;22.07;47.22;102154.19;5039206;28;19967;-50
2023/10/16 13:49:14;;;;;;;;;;;;;;;22.06;46.93;102152.50;5041205;28;19912;-47
2023/10/16 13:51:39;;;;;;;;;;;;;;;22.04;46.82;102152.63;5036030;28;19963;-46
2023/10/16 13:54:11;;;;;;;;;;;;;;;22.03;47.09;102152.81;5041096;28;19913;-49
2023/10/16 13:56:36;;;;;;;;;;;;;;;22.02;47.08;102153.81;5039322;28;19952;-48
2023/10/16 13:59:03;;;;;;;;;;;;;;;22.01;47.01;102154.84;5038644;28;20288;-47
2023/10/16 14:01:30;;;;;;;;;;;;;;;22.00;47.01;102147.69;5041367;28;19925;-49
2023/10/16 14:03:58;;;;;;;;;;;;;;;21.98;47.29;102147.03;5037732;28;20330;-48
2023/10/16 14:06:24;;;;;;;;;;;;;;;21.96;47.41;102148.03;5040018;28;19913;-48
2023/10/16 14:08:49;;;;;;;;;;;;;;;21.95;47.05;102143.63;5036301;28;19909;-48
2023/10/16 14:11:14;;;;;;;;;;;;;;;21.95;47.21;102140.91;5038823;28;19920;-47
2023/10/16 14:13:40;;;;;;;;;;;;;;;21.94;47.42;102131.09;5036073;28;19913;-47
2023/10/16 14:16:11;;;;;;;;;;;;;;;21.93;47.22;102134.81;5038043;28;19909;-48
2023/10/16 14:18:42;;;;;;;;;;;;;;;21.92;47.20;102135.81;5036315;28;19909;-48
2023/10/16 14:21:11;;;;;;;;;;;;;;;21.91;47.62;102139.53;5039665;28;19913;-46
2023/10/16 14:23:38;;;;;;;;;;;;;;;21.90;47.49;102137.81;5041316;28;19916;-46